Accueil
METAR-TAF:

METAR-TAF

Aéroports :

Base aérienne Cameri

Novare, Italie

latitude: 45-31N, longitude: 008-40E, altitude: 178 m

Observation

Le bulletin a été fait il y a 1 heure et 0 minutes, à 05:55 UTC
Vent 4 kt de nord
Température -6°C
Humidité 93%
Pression 998 hPa
Visibilité: 5000 m
brume

METAR: LIMN 230555Z 35004KT 5000 BR NSC M06/M07 Q0998 RMK BKN BKN200 VIS MIN 5000 WHT

Heure: 07:55 (06:55 UTC)

Prévision

Le bulletin a été fait il y a 1 heure et 55 minutes, à 05:00 UTC
Prévision valable du 23 à 06 UTC au 23 à 15 UTC
Vent 3 kt de nord/nord-ouest
Visibilité: 3000 m
brume
Evoluant progressivement
du 23 à 07 UTC au 23 à 09 UTC
Visibilité 10 km ou plus
pas de nuages en-dessous de 1500 mètres et pas de cumulonimbus.

TAF: LIMN 230500Z 2306/2315 34003KT 3000 BR NSC BECMG 2307/2309 CAVOK

Observations et prévisions météorologiques de plus de 4000 aéroports (messages METAR et TAF).

Les stations disponibles sont représentées par des disques jaunes et rouges sur la carte.

Passer la souris dessus pour voir le nom de la station.

Cliquer dessus pour voir les observations et prévisions météorologiques.

Pour changer de carte: cliquez sur les boutons verts avec une croix noire pour zoomer, sur le bouton vert avec un tiret pour effectuer un zoom arrière, ou sur les flèches vertes pour les cartes adjacentes.


METAR-TAF: